MMCB 090055Z 00000KT 10SM SKC 22/08 A3009= 090055

MMCB 082342Z 00000KT 10SM SKC 26/08 A3007= 082343

MMCB 082251Z 00000KT 10SM SKC 29/07 A3006= 082252

MMCB 082145Z 19005KT 8SM SKC 30/08 A3006= 082146

MMCB 082053Z 19005KT 8SM SKC 30/08 A3008= 082053

MMCB 081941Z 12004KT 9SM SKC 29/08 A3011= 081942

MMCB 081856Z 00000KT 8SM SKC 27/07 A3015= 081856

MMCB 081747Z 16004KT 7SM SKC 26/07 A3019 RMK HZY= 081748

MMCB 081648Z 16004KT 7SM SKC 26/08 A3023 RMK HZY= 081649

MMCB 081550Z 15004KT 7SM SKC 27/07 A3024 RMK HZY= 081550

MMCB 081446Z 00000KT 7SM SKC 21/07 A3024 RMK HZY= 081447

MMCB 081346Z 00000KT 7SM FEW200 16/08 A3021 RMK 8/001 HZY= 081347

MMCB 081251Z 00000KT 7SM FEW200 14/08 A3019 RMK 8/001 HZY RTS= 081252

MMCB 080048Z 34005KT 7SM SKC 23/06 A3007 RMK HZY= 080048

MMCB 072349Z 00000KT 7SM SKC 26/06 A3006 RMK HZY= 072350

MMCB 072249Z 13005KT 7SM SKC 29/05 A3005 RMK HZY= 072250

MMCB 072142Z 00000KT 7SM SKC 30/04 A3005 RMK HZY= 072142

MMCB 072050Z 16006KT 8SM SKC 30/04 A3006 RMK HZY= 072051

MMCB 071950Z 17005KT 7SM SKC 29/05 A3009 RMK HZY= 071951

MMCB 071850Z 18005KT 7SM SKC 29/06 A3013 RMK HZY= 071851

MMCB 071750Z 19006KT 7SM SKC 27/08 A3017 RMK HZY= 071751

MMCB 071656Z 17006KT 7SM SKC 25/10 A3019 RMK HZY= 071656

MMCB 071543Z 20004KT 8SM SKC 23/10 A3020= 071544

MMCB 071443Z 00000KT 8SM SKC 20/09 A3019= 071443

MMCB 071356Z 00000KT 8SM SKC 17/10 A3018 RMK RTS= 071357

MMCB 071400Z 00000KT 8SM SKC 16/10 A3017 RMK HZYNNNN= 071343

MMCB 071300Z 00000K 8SM SKC 14/09 A3017 RMK HZY RTSNNNN= 071315

MMCB 070047Z 32003KT 8SM SKC 22/09 A3011 RMK CU= 070047

MMCB 062347Z 00000KT 8SM SKC 25/08 A3010 RMK CU= 062347

MMCB 062250Z 16004KT 8SM SKC 28/07 A3010 RMK CU= 062250

MMCB 062144Z 15004KT 8SM SKC 28/04 A3010= 062144

MMCB 062044Z 00000KT 8SM SKC 28/10 A3012 RMK CU= 062047

MMCB 061943Z 00000KT 8SM SKC 29/10 A3015 RMK CU= 061944

MMCB 061846Z 00000KT 8SM SKC 27/10 A3018= 061847

MMCB 061750Z 21002KT 8SM SKC 27/10 A3023= 061750

MMCB 061649Z 00000KT 8SM FEW200 25/11 A3025 RMK 8/001= 061650

MMCB 061544Z 16002KT 8SM FEW200 23/11 A3025 RMK 8/001= 061544

MMCB 061449Z 00000KT 8SM SKC 21/11 A3025= 061450

MMCB 061348Z 34003KT 8SM FEW200 17/10 A3023 RMK 8/001 AC= 061349

MMCB 061249Z 35003KT 8SM FEW200 14/10 A3020 RMK 8/001 AC RTS= 061250